M I D A S
Marine Information and Data Acquisition System
Tripno 1216 of the Zeeleeuw from 2007-02-22 07:44:22 to 2007-02-22 15:07:47
Back to CruiseResearch ActivitiesStationsMapUnderway DataData graphs

EquipmentUnitsComment
TimeDGPSUTC
LatitudeDGPSDM.mWGS84
LongitudeDGPSDM.mWGS84
HeadingGyrodeg 
SOGDGPSknotsSpeed over ground
COGDGPSdegCourse over ground
DepthEcho soundermeters200 kHz
Missing or incorrect values are displayed as -999
Navigation data collected by the RV Zeeleeuw from 2007-02-22 07:45:23 to 2007-02-22 15:16:21
                                                                                    Next 1000 lines
Time Latitude Longitude Heading SOG COG Depth
2007-02-22 07:45:32 51°13.597 2°56.093 113.7 0.7 293 6.5
2007-02-22 07:45:38 51°13.598 2°56.091 113.6 0.9 295 6.6
2007-02-22 07:45:43 51°13.599 2°56.088 113.8 1.2 296 6.7
2007-02-22 07:45:48 51°13.6 2°56.085 114.2 1.5 296 6.7
2007-02-22 07:45:53 51°13.601 2°56.081 114.6 1.8 296 6.8
2007-02-22 07:45:58 51°13.602 2°56.077 115.1 2.3 296 -999
2007-02-22 07:46:04 51°13.604 2°56.071 115.4 2.7 296 -999
2007-02-22 07:46:10 51°13.606 2°56.063 115.7 3.2 295 -999
2007-02-22 07:46:15 51°13.608 2°56.056 115.9 3.5 295 -999
2007-02-22 07:46:21 51°13.611 2°56.047 116.2 3.9 295 -999
2007-02-22 07:46:26 51°13.614 2°56.039 116.8 4.2 295 -999
2007-02-22 07:46:32 51°13.617 2°56.028 117.5 4.3 296 -999
2007-02-22 07:46:36 51°13.619 2°56.021 118.3 4.4 296 -999
2007-02-22 07:46:42 51°13.622 2°56.011 118.8 4.5 297 -999
2007-02-22 07:46:47 51°13.624 2°56.001 119.2 4.7 297 -999
2007-02-22 07:46:52 51°13.627 2°55.992 119.6 4.8 297 -999
2007-02-22 07:46:56 51°13.63 2°55.984 119.7 4.9 297 -999
2007-02-22 07:47:02 51°13.633 2°55.972 120 5.1 297 -999
2007-02-22 07:47:06 51°13.636 2°55.964 120.3 5.2 298 -999
2007-02-22 07:47:12 51°13.64 2°55.952 120.6 5.2 298 -999
2007-02-22 07:47:17 51°13.644 2°55.942 121.3 5.1 298 -999
2007-02-22 07:47:22 51°13.647 2°55.932 121.8 5 299 -999
2007-02-22 07:47:26 51°13.65 2°55.924 122.4 4.9 300 -999
2007-02-22 07:47:31 51°13.653 2°55.915 122.8 4.9 300 -999
2007-02-22 07:47:36 51°13.657 2°55.906 123.4 4.9 301 -999
2007-02-22 07:47:42 51°13.661 2°55.895 124 4.8 301 4.6
2007-02-22 07:47:46 51°13.664 2°55.888 124.3 4.8 303 4.6
2007-02-22 07:47:51 51°13.668 2°55.879 124.9 4.8 302 -999
2007-02-22 07:47:56 51°13.671 2°55.87 125.5 4.8 303 -999
2007-02-22 07:48:02 51°13.675 2°55.859 125.9 4.7 303 -999
2007-02-22 07:48:07 51°13.679 2°55.851 126.4 4.7 303 -999
2007-02-22 07:48:12 51°13.683 2°55.842 127 4.7 304 -999
2007-02-22 07:48:16 51°13.686 2°55.835 127.9 4.7 304 -999
2007-02-22 07:48:22 51°13.69 2°55.825 129.3 4.7 306 -999
2007-02-22 07:48:27 51°13.694 2°55.817 130.8 4.6 307 -999
2007-02-22 07:48:32 51°13.698 2°55.809 132 4.5 308 -999
2007-02-22 07:48:36 51°13.701 2°55.803 133.5 4.5 309 -999
2007-02-22 07:48:42 51°13.706 2°55.793 134.7 4.6 310 -999
2007-02-22 07:48:47 51°13.711 2°55.785 136.4 4.7 311 -999
2007-02-22 07:48:52 51°13.716 2°55.778 137.6 4.7 313 -999
2007-02-22 07:48:57 51°13.72 2°55.77 139.1 4.7 314 -999
2007-02-22 07:49:02 51°13.725 2°55.763 140.5 4.7 316 -999
2007-02-22 07:49:06 51°13.729 2°55.757 142.2 4.8 317 -999
2007-02-22 07:49:12 51°13.735 2°55.749 142.9 4.8 319 -999
2007-02-22 07:49:17 51°13.74 2°55.742 144.3 4.8 320 -999
2007-02-22 07:49:22 51°13.746 2°55.736 146 4.8 322 -999
2007-02-22 07:49:26 51°13.75 2°55.731 147.6 4.8 323 -999
2007-02-22 07:49:31 51°13.755 2°55.724 148.5 4.8 325 -999
2007-02-22 07:49:37 51°13.762 2°55.717 149.5 4.9 327 -999
2007-02-22 07:49:42 51°13.768 2°55.711 150.6 5 328 -999
2007-02-22 07:49:46 51°13.773 2°55.707 151.8 5.1 330 -999
2007-02-22 07:49:51 51°13.779 2°55.701 152.8 5.3 331 -999
2007-02-22 07:49:57 51°13.787 2°55.694 153.1 5.2 332 -999
2007-02-22 07:50:02 51°13.793 2°55.689 153 5.3 332 -999
2007-02-22 07:50:06 51°13.799 2°55.684 152.7 5.3 331 -999
2007-02-22 07:50:12 51°13.806 2°55.677 152.1 5.3 331 -999
2007-02-22 07:50:16 51°13.811 2°55.673 151.4 5.4 331 -999
2007-02-22 07:50:22 51°13.819 2°55.665 150.7 5.6 330 -999
2007-02-22 07:50:27 51°13.826 2°55.659 150.3 5.8 329 -999
2007-02-22 07:50:32 51°13.833 2°55.652 149.6 5.7 329 -999
2007-02-22 07:50:36 51°13.838 2°55.647 149.1 5.4 328 -999
2007-02-22 07:50:42 51°13.845 2°55.64 148.1 5.1 326 -999
2007-02-22 07:50:47 51°13.851 2°55.634 146.7 4.7 327 -999
2007-02-22 07:50:52 51°13.856 2°55.629 145.7 4.1 327 -999
2007-02-22 07:50:56 51°13.859 2°55.626 145.2 3.6 327 4.6
2007-02-22 07:51:01 51°13.862 2°55.623 145.2 2.9 329 4.9
2007-02-22 07:51:06 51°13.865 2°55.62 145.3 2.1 330 4.9
2007-02-22 07:51:11 51°13.867 2°55.619 146 1.4 335 4.6
2007-02-22 07:51:15 51°13.867 2°55.619 147.2 0.7 339 4.9
2007-02-22 07:51:20 51°13.868 2°55.619 149.5 0.2 357 4.9
2007-02-22 07:51:25 51°13.868 2°55.619 153.1 0.2 84 4.8
2007-02-22 07:51:30 51°13.868 2°55.618 157.8 0.2 315 4.8
2007-02-22 07:51:35 51°13.869 2°55.618 161.4 0.6 7 4.8
2007-02-22 07:51:40 51°13.87 2°55.617 164.1 1 337 4.6
2007-02-22 07:51:44 51°13.871 2°55.617 166.7 1.4 354 4.7
2007-02-22 07:51:49 51°13.874 2°55.616 168.7 1.8 345 4.7
2007-02-22 07:51:54 51°13.877 2°55.616 170.6 2.1 352 4.8
2007-02-22 07:51:59 51°13.88 2°55.614 173 2.5 349 4.5
2007-02-22 07:52:04 51°13.884 2°55.614 175.3 2.8 354 -999
2007-02-22 07:52:10 51°13.889 2°55.613 178 3.2 354 -999
2007-02-22 07:52:15 51°13.894 2°55.613 180.2 3.5 357 -999
2007-02-22 07:52:21 51°13.9 2°55.612 181.8 3.8 358 -999
2007-02-22 07:52:26 51°13.906 2°55.612 183.3 4.1 -999 -999
2007-02-22 07:52:32 51°13.913 2°55.612 184.8 4.2 1 -999
2007-02-22 07:52:36 51°13.917 2°55.613 186.5 4.2 1 -999
2007-02-22 07:52:42 51°13.924 2°55.613 187.9 4.2 2 -999
2007-02-22 07:52:47 51°13.93 2°55.613 189.1 4 2 -999
2007-02-22 07:52:52 51°13.935 2°55.613 189.9 3.8 3 -999
2007-02-22 07:52:56 51°13.939 2°55.614 190.6 3.7 2 -999
2007-02-22 07:53:01 51°13.944 2°55.614 191.4 3.5 4 -999
2007-02-22 07:53:06 51°13.949 2°55.614 192.3 3.3 3 10.3
2007-02-22 07:53:11 51°13.953 2°55.615 193.4 3.1 4 10.5
2007-02-22 07:53:16 51°13.956 2°55.615 194.6 2.7 4 10.4
2007-02-22 07:53:21 51°13.959 2°55.616 196.4 2.2 2 10.6
2007-02-22 07:53:26 51°13.962 2°55.615 198.5 1.5 358 10.8
2007-02-22 07:53:30 51°13.962 2°55.615 201.4 0.8 337 10.6
2007-02-22 07:53:35 51°13.963 2°55.614 205.7 0.7 290 10.5
2007-02-22 07:53:40 51°13.962 2°55.611 211.7 1.1 252 10.5
2007-02-22 07:53:44 51°13.961 2°55.609 217.7 1.6 246 10.1
2007-02-22 07:53:50 51°13.96 2°55.603 227.8 2.2 249 9.9
2007-02-22 07:53:54 51°13.959 2°55.599 236.6 2.7 254 10.2
2007-02-22 07:53:59 51°13.958 2°55.593 244.8 3 259 10
2007-02-22 07:54:03 51°13.958 2°55.587 253.2 3.4 267 10.2
2007-02-22 07:54:08 51°13.958 2°55.578 261.4 3.7 272 10.2
2007-02-22 07:54:13 51°13.959 2°55.569 269.9 4.1 281 10.3
2007-02-22 07:54:18 51°13.961 2°55.56 278.2 4.4 288 9.8
2007-02-22 07:54:23 51°13.963 2°55.551 284.8 4.5 294 10.2
2007-02-22 07:54:28 51°13.967 2°55.542 294.5 4.7 301 10.2
2007-02-22 07:54:33 51°13.971 2°55.534 302.6 4.7 307 10.3
2007-02-22 07:54:38 51°13.975 2°55.527 310.8 4.5 315 10.3
2007-02-22 07:54:43 51°13.98 2°55.52 317.1 4.4 319 10.3
2007-02-22 07:54:48 51°13.985 2°55.515 322.2 4.3 322 10.4
2007-02-22 07:54:53 51°13.99 2°55.51 326.5 4.4 329 10.3
2007-02-22 07:54:58 51°13.995 2°55.505 332.6 5 334 10.4
2007-02-22 07:55:03 51°14.003 2°55.5 337.5 5.7 337 10.4
2007-02-22 07:55:08 51°14.011 2°55.494 339.8 6.5 336 10.3
2007-02-22 07:55:13 51°14.021 2°55.488 341 7.4 338 10.3
2007-02-22 07:55:18 51°14.031 2°55.481 341.8 8.4 338 10.3
2007-02-22 07:55:23 51°14.043 2°55.473 341.8 9.2 338 10.4
2007-02-22 07:55:28 51°14.056 2°55.465 342.1 9.7 338 10.4
2007-02-22 07:55:33 51°14.07 2°55.457 342.8 10.3 339 10.4
2007-02-22 07:55:38 51°14.084 2°55.448 342.9 10.8 338 10.4
2007-02-22 07:55:43 51°14.098 2°55.439 342.5 11.2 339 10.5
2007-02-22 07:55:48 51°14.113 2°55.43 343.6 11.4 340 10.5
2007-02-22 07:55:53 51°14.128 2°55.421 344.3 11.6 339 10.5
2007-02-22 07:55:58 51°14.143 2°55.41 342.3 11.9 335 10.6
2007-02-22 07:56:03 51°14.158 2°55.398 340.1 12 334 10.5
2007-02-22 07:56:08 51°14.173 2°55.386 337.7 12.1 332 10.6
2007-02-22 07:56:13 51°14.188 2°55.373 336.2 12.1 331 10.6
2007-02-22 07:56:18 51°14.202 2°55.359 334.8 12 329 10.6
2007-02-22 07:56:23 51°14.215 2°55.344 332.9 11.7 325 10.6
2007-02-22 07:56:28 51°14.228 2°55.328 329.1 11.5 321 10.6
2007-02-22 07:56:33 51°14.239 2°55.311 323.6 11.4 317 10.6
2007-02-22 07:56:38 51°14.25 2°55.293 320.8 11.2 316 10.7
2007-02-22 07:56:43 51°14.261 2°55.276 319.3 11.2 314 11.2
2007-02-22 07:56:48 51°14.271 2°55.257 316.7 11.1 311 10.8
2007-02-22 07:56:53 51°14.281 2°55.239 314.5 11 309 10.8
2007-02-22 07:56:58 51°14.29 2°55.22 312.7 10.9 309 11.1
2007-02-22 07:57:03 51°14.299 2°55.201 311.9 10.8 308 11.1
2007-02-22 07:57:08 51°14.308 2°55.182 311.2 10.8 307 10.9
2007-02-22 07:57:13 51°14.317 2°55.162 309.9 10.8 305 10.9
2007-02-22 07:57:18 51°14.326 2°55.143 308.5 10.9 305 10.8
2007-02-22 07:57:23 51°14.334 2°55.123 307.8 11 304 11
2007-02-22 07:57:28 51°14.343 2°55.103 307.7 11.2 305 10.1
2007-02-22 07:57:33 51°14.352 2°55.082 308.2 11.6 306 9.8
2007-02-22 07:57:38 51°14.363 2°55.061 309.1 12 308 9.9
2007-02-22 07:57:43 51°14.373 2°55.04 312.1 12.4 310 9.6
2007-02-22 07:57:48 51°14.385 2°55.019 315.3 12.7 312 9.9
2007-02-22 07:57:53 51°14.397 2°54.997 316.1 13 311 9.7
2007-02-22 07:57:58 51°14.409 2°54.976 316.3 13.2 312 9.8
2007-02-22 07:58:03 51°14.422 2°54.954 317.1 13.4 312 9.8
2007-02-22 07:58:08 51°14.435 2°54.932 318.5 13.6 313 9.8
2007-02-22 07:58:13 51°14.448 2°54.91 319.1 13.7 313 9.7
2007-02-22 07:58:18 51°14.461 2°54.888 319.9 13.7 314 9.4
2007-02-22 07:58:23 51°14.475 2°54.867 322 13.7 317 9.2
2007-02-22 07:58:28 51°14.489 2°54.847 325.1 13.6 318 9.2
2007-02-22 07:58:33 51°14.503 2°54.828 326.1 13.6 320 9.1
2007-02-22 07:58:38 51°14.518 2°54.808 326.6 13.6 320 9
2007-02-22 07:58:43 51°14.533 2°54.79 329 13.6 324 8.8
2007-02-22 07:58:48 51°14.548 2°54.773 331 13.6 324 8.8
2007-02-22 07:58:53 51°14.564 2°54.755 331.7 13.6 324 8.8
2007-02-22 07:58:58 51°14.579 2°54.738 332.2 13.6 324 8.7
2007-02-22 07:59:03 51°14.594 2°54.72 332.3 13.6 324 8.6
2007-02-22 07:59:08 51°14.609 2°54.702 331.6 13.6 323 8.6
2007-02-22 07:59:13 51°14.624 2°54.683 330.9 13.6 322 8.6
2007-02-22 07:59:18 51°14.639 2°54.664 329.9 13.6 321 8.6
2007-02-22 07:59:23 51°14.653 2°54.644 328.3 13.7 319 8.6
2007-02-22 07:59:28 51°14.667 2°54.624 326.7 13.7 318 8.6
2007-02-22 07:59:33 51°14.681 2°54.603 325.6 13.8 317 8.7
2007-02-22 07:59:38 51°14.695 2°54.582 324.5 13.8 316 8.8
2007-02-22 07:59:43 51°14.709 2°54.561 324.1 13.9 316 8.9
2007-02-22 07:59:48 51°14.723 2°54.54 323.5 13.9 316 8.6
2007-02-22 07:59:53 51°14.737 2°54.519 323.3 13.9 316 8.6
2007-02-22 07:59:58 51°14.751 2°54.497 323.1 13.9 316 8.7
2007-02-22 08:00:03 51°14.765 2°54.476 323.1 13.9 316 8.7
2007-02-22 08:00:08 51°14.779 2°54.455 323.7 13.8 317 8.5
2007-02-22 08:00:13 51°14.793 2°54.434 323.8 13.9 316 8.5
2007-02-22 08:00:18 51°14.806 2°54.412 323.2 13.9 315 8.5
2007-02-22 08:00:23 51°14.82 2°54.39 322.5 13.9 315 8.5
2007-02-22 08:00:28 51°14.833 2°54.368 321.7 13.8 314 8.4
2007-02-22 08:00:33 51°14.846 2°54.346 320.9 13.9 313 8.3
2007-02-22 08:00:38 51°14.859 2°54.323 320.4 13.9 313 8.7
2007-02-22 08:00:43 51°14.872 2°54.3 319.8 13.9 312 8.2
2007-02-22 08:00:48 51°14.885 2°54.278 319.6 13.9 313 8.3
2007-02-22 08:00:53 51°14.899 2°54.256 319.7 13.9 314 8.5
2007-02-22 08:00:58 51°14.912 2°54.234 320 13.8 314 8.1
2007-02-22 08:01:03 51°14.925 2°54.212 320.3 13.7 315 8.1
2007-02-22 08:01:08 51°14.939 2°54.19 320.7 13.7 314 7.9
2007-02-22 08:01:13 51°14.952 2°54.169 320.8 13.6 314 8
2007-02-22 08:01:18 51°14.965 2°54.147 320.8 13.6 314 7.9
2007-02-22 08:01:23 51°14.978 2°54.125 320.3 13.6 313 7.9
2007-02-22 08:01:28 51°14.991 2°54.103 319.7 13.6 313 7.9
2007-02-22 08:01:33 51°15.003 2°54.081 319.5 13.5 312 8.1
2007-02-22 08:01:38 51°15.016 2°54.059 319 13.6 312 8.3
2007-02-22 08:01:43 51°15.029 2°54.036 318.6 13.8 312 7.8
2007-02-22 08:01:48 51°15.042 2°54.013 318.5 13.9 312 8.6
2007-02-22 08:01:53 51°15.055 2°53.991 318.4 13.8 313 8.5
2007-02-22 08:01:58 51°15.068 2°53.969 319 13.8 314 8.8
2007-02-22 08:02:03 51°15.082 2°53.947 319.7 13.8 315 8.1
2007-02-22 08:02:08 51°15.095 2°53.925 320.1 13.7 315 8.2
2007-02-22 08:02:13 51°15.109 2°53.904 321.4 13.7 316 8.3
2007-02-22 08:02:18 51°15.122 2°53.883 321.7 13.7 316 8.3
2007-02-22 08:02:23 51°15.136 2°53.862 322.2 13.7 316 8.3
2007-02-22 08:02:28 51°15.15 2°53.841 322.2 13.7 316 8.3
2007-02-22 08:02:33 51°15.164 2°53.82 322.2 13.8 316 8.7
2007-02-22 08:02:38 51°15.177 2°53.799 321.8 13.8 316 8.5
2007-02-22 08:02:43 51°15.191 2°53.778 321.8 13.8 316 8.6
2007-02-22 08:02:48 51°15.205 2°53.757 321.8 13.7 316 8.6
2007-02-22 08:02:53 51°15.219 2°53.736 321.7 13.7 316 8.7
2007-02-22 08:02:58 51°15.233 2°53.715 322.2 13.7 317 8.7
2007-02-22 08:03:03 51°15.246 2°53.695 322.7 13.7 317 8.8
2007-02-22 08:03:08 51°15.261 2°53.674 322.9 13.8 317 9
2007-02-22 08:03:13 51°15.275 2°53.653 322.9 13.8 317 8.9
2007-02-22 08:03:18 51°15.288 2°53.632 322.9 13.8 317 8.9
2007-02-22 08:03:23 51°15.303 2°53.612 322.8 13.8 318 9
2007-02-22 08:03:28 51°15.317 2°53.591 322.7 13.8 318 9.1
2007-02-22 08:03:33 51°15.332 2°53.573 324.9 13.8 322 9.1
2007-02-22 08:03:38 51°15.347 2°53.554 327.2 13.7 323 9.1
2007-02-22 08:03:43 51°15.363 2°53.537 329 13.7 325 9.2
2007-02-22 08:03:48 51°15.378 2°53.519 330.7 13.7 324 9.2
2007-02-22 08:03:53 51°15.394 2°53.502 331.4 13.7 325 9.3
2007-02-22 08:03:58 51°15.409 2°53.485 332.9 13.6 328 9.4
2007-02-22 08:04:03 51°15.426 2°53.47 334.8 13.5 330 9.4
2007-02-22 08:04:08 51°15.442 2°53.456 336.8 13.6 331 9.4
2007-02-22 08:04:13 51°15.459 2°53.442 338.6 13.5 332 9.4
2007-02-22 08:04:18 51°15.475 2°53.429 339.8 13.4 335 9.5
2007-02-22 08:04:23 51°15.492 2°53.416 341.8 13.4 335 9.6
2007-02-22 08:04:28 51°15.51 2°53.405 343.4 13.4 338 9.7
2007-02-22 08:04:33 51°15.527 2°53.394 345.5 13.4 339 9.7
2007-02-22 08:04:38 51°15.545 2°53.385 346.9 13.4 341 9.8
2007-02-22 08:04:43 51°15.562 2°53.375 348.4 13.3 341 9.9
2007-02-22 08:04:48 51°15.579 2°53.366 349.2 13.3 342 9.9
2007-02-22 08:04:53 51°15.597 2°53.357 350 13.3 342 9.9
2007-02-22 08:04:58 51°15.615 2°53.349 350.5 13.3 343 10
2007-02-22 08:05:03 51°15.632 2°53.34 350.6 13.3 343 10
2007-02-22 08:05:08 51°15.65 2°53.331 351.1 13.3 343 10.1
2007-02-22 08:05:13 51°15.667 2°53.322 351 13.2 343 10.1
2007-02-22 08:05:18 51°15.685 2°53.313 350.7 13.3 341 10.2
2007-02-22 08:05:23 51°15.702 2°53.304 350.2 13.3 342 10.2
2007-02-22 08:05:28 51°15.72 2°53.294 350 13.3 341 10.3
2007-02-22 08:05:33 51°15.737 2°53.285 350 13.3 342 10.3
2007-02-22 08:05:38 51°15.755 2°53.276 349.8 13.3 341 10.4
2007-02-22 08:05:43 51°15.772 2°53.267 349.9 13.3 342 10.5
2007-02-22 08:05:48 51°15.789 2°53.257 349.8 13.3 341 10.5
2007-02-22 08:05:53 51°15.807 2°53.248 349.8 13.3 342 10.5
2007-02-22 08:05:58 51°15.825 2°53.238 349.8 13.3 341 10.5
2007-02-22 08:06:03 51°15.842 2°53.229 349.5 13.3 341 10.6
2007-02-22 08:06:08 51°15.86 2°53.22 349.4 13.3 342 10.7
2007-02-22 08:06:13 51°15.877 2°53.21 349.4 13.3 341 10.7
2007-02-22 08:06:18 51°15.894 2°53.201 349.7 13.3 342 10.7
2007-02-22 08:06:23 51°15.912 2°53.192 349.7 13.3 342 10.8
2007-02-22 08:06:28 51°15.929 2°53.182 349.8 13.3 342 10.8
2007-02-22 08:06:33 51°15.947 2°53.173 349.8 13.3 342 10.8
2007-02-22 08:06:38 51°15.964 2°53.164 350.1 13.3 341 10.9
2007-02-22 08:06:43 51°15.982 2°53.155 349.8 13.3 342 10.9
2007-02-22 08:06:48 51°15.999 2°53.145 349.8 13.3 342 10.9
2007-02-22 08:06:53 51°16.017 2°53.136 350 13.3 342 11
2007-02-22 08:06:58 51°16.035 2°53.127 350 13.3 342 11
2007-02-22 08:07:03 51°16.052 2°53.118 349.8 13.3 342 11
2007-02-22 08:07:08 51°16.069 2°53.109 349.8 13.3 342 11
2007-02-22 08:07:13 51°16.087 2°53.099 349.7 13.2 341 11
2007-02-22 08:07:18 51°16.104 2°53.09 349.7 13.2 341 11
2007-02-22 08:07:23 51°16.121 2°53.081 349.3 13.2 341 11
2007-02-22 08:07:28 51°16.139 2°53.071 349.2 13.3 341 11.1
2007-02-22 08:07:33 51°16.156 2°53.062 349 13.3 341 11.1
2007-02-22 08:07:38 51°16.174 2°53.052 349 13.3 341 11.1
2007-02-22 08:07:43 51°16.191 2°53.043 349.1 13.2 342 11.2
2007-02-22 08:07:48 51°16.209 2°53.033 349.1 13.2 341 11.2
2007-02-22 08:07:53 51°16.226 2°53.024 349.1 13.3 341 11.2
2007-02-22 08:07:58 51°16.243 2°53.014 348.6 13.3 341 11.2
2007-02-22 08:08:03 51°16.261 2°53.004 348.6 13.3 341 11.2
2007-02-22 08:08:08 51°16.278 2°52.995 348.6 13.3 341 11.2
2007-02-22 08:08:13 51°16.296 2°52.985 348.6 13.3 341 11.2
2007-02-22 08:08:18 51°16.313 2°52.976 348.6 13.3 341 11.2
2007-02-22 08:08:23 51°16.33 2°52.966 348.4 13.3 341 11.3
2007-02-22 08:08:28 51°16.348 2°52.956 348.6 13.3 341 11.2
2007-02-22 08:08:33 51°16.365 2°52.946 348.5 13.3 341 11.2
2007-02-22 08:08:38 51°16.383 2°52.937 348.6 13.3 341 11.2
2007-02-22 08:08:43 51°16.4 2°52.927 348.6 13.3 341 11.2
2007-02-22 08:08:48 51°16.418 2°52.917 348.6 13.3 341 11.1
2007-02-22 08:08:53 51°16.435 2°52.908 348.6 13.3 341 11.1
2007-02-22 08:08:58 51°16.452 2°52.898 348.6 13.3 341 11.1
2007-02-22 08:09:03 51°16.47 2°52.889 348.6 13.3 341 11
2007-02-22 08:09:08 51°16.487 2°52.879 348.7 13.3 341 10.9
2007-02-22 08:09:13 51°16.505 2°52.87 348.8 13.3 342 11
2007-02-22 08:09:18 51°16.522 2°52.86 348.6 13.3 341 10.9
2007-02-22 08:09:23 51°16.54 2°52.851 348.8 13.3 341 10.8
2007-02-22 08:09:28 51°16.557 2°52.841 348.9 13.3 341 10.8
2007-02-22 08:09:33 51°16.575 2°52.832 348.9 13.3 341 10.7
2007-02-22 08:09:38 51°16.592 2°52.822 349 13.3 341 10.6
2007-02-22 08:09:43 51°16.61 2°52.813 348.8 13.3 341 10.6
2007-02-22 08:09:48 51°16.627 2°52.804 348.7 13.3 341 10.4
2007-02-22 08:09:53 51°16.645 2°52.794 348.9 13.3 342 10.4
2007-02-22 08:09:58 51°16.662 2°52.785 349.1 13.3 342 10.2
2007-02-22 08:10:03 51°16.68 2°52.776 349.1 13.3 341 10.2
2007-02-22 08:10:08 51°16.697 2°52.767 348.9 13.3 342 10
2007-02-22 08:10:13 51°16.714 2°52.758 348.8 13.2 341 9.8
2007-02-22 08:10:18 51°16.732 2°52.749 348.6 13.2 342 9.5
2007-02-22 08:10:23 51°16.749 2°52.739 348.7 13.2 342 9.1
2007-02-22 08:10:28 51°16.767 2°52.73 348.8 13.2 342 8.8
2007-02-22 08:10:33 51°16.784 2°52.721 348.8 13.1 342 8.7
2007-02-22 08:10:38 51°16.801 2°52.712 348.6 13.1 341 8.7
2007-02-22 08:10:43 51°16.818 2°52.702 348.4 13.1 341 8.9
2007-02-22 08:10:48 51°16.835 2°52.693 348.2 13.1 341 8.8
2007-02-22 08:10:53 51°16.853 2°52.683 348 13.2 340 8.5
2007-02-22 08:10:58 51°16.87 2°52.674 347.6 13.2 341 8.7
2007-02-22 08:11:03 51°16.887 2°52.664 347.9 13.1 341 8.5
2007-02-22 08:11:08 51°16.904 2°52.655 347.9 13.2 341 8.8
2007-02-22 08:11:13 51°16.922 2°52.646 348.1 13.2 341 9
2007-02-22 08:11:18 51°16.939 2°52.637 348.3 13.3 342 9.1
2007-02-22 08:11:23 51°16.957 2°52.627 348.4 13.3 341 9
2007-02-22 08:11:28 51°16.974 2°52.618 348.4 13.4 342 9
2007-02-22 08:11:33 51°16.992 2°52.609 348.3 13.4 341 9
2007-02-22 08:11:38 51°17.01 2°52.599 348.1 13.4 342 9.1
2007-02-22 08:11:43 51°17.027 2°52.59 348.3 13.4 342 8.7
2007-02-22 08:11:48 51°17.045 2°52.58 348.6 13.3 342 8.7
2007-02-22 08:11:53 51°17.062 2°52.571 348.6 13.2 342 8.6
2007-02-22 08:11:58 51°17.08 2°52.563 348.7 13.2 342 8.7
2007-02-22 08:12:03 51°17.097 2°52.553 348.8 13.3 342 8.6
2007-02-22 08:12:08 51°17.115 2°52.544 348.8 13.2 342 8.6
2007-02-22 08:12:13 51°17.132 2°52.535 348.8 13.3 342 8.6
2007-02-22 08:12:18 51°17.15 2°52.526 348.5 13.3 342 8.8
2007-02-22 08:12:23 51°17.167 2°52.516 348.3 13.4 342 8.8
2007-02-22 08:12:28 51°17.185 2°52.507 348.1 13.3 341 8.7
2007-02-22 08:12:33 51°17.202 2°52.498 348.1 13.4 341 8.8
2007-02-22 08:12:38 51°17.22 2°52.488 347.7 13.4 341 8.9
2007-02-22 08:12:43 51°17.238 2°52.479 347.9 13.5 341 9
2007-02-22 08:12:48 51°17.255 2°52.469 347.8 13.4 341 9.2
2007-02-22 08:12:53 51°17.273 2°52.459 347.8 13.4 341 9.2
2007-02-22 08:12:58 51°17.291 2°52.45 347.9 13.5 342 9.2
2007-02-22 08:13:03 51°17.308 2°52.44 348.2 13.4 341 9.3
2007-02-22 08:13:08 51°17.326 2°52.432 348.3 13.5 342 9.4
2007-02-22 08:13:13 51°17.343 2°52.422 348.3 13.4 340 9.5
2007-02-22 08:13:18 51°17.361 2°52.412 348 13.4 338 9.4
2007-02-22 08:13:23 51°17.378 2°52.398 344.5 13.5 334 9.5
2007-02-22 08:13:28 51°17.394 2°52.385 341.1 13.4 332 9.4
2007-02-22 08:13:33 51°17.41 2°52.369 338.5 13.5 330 9.4
2007-02-22 08:13:38 51°17.426 2°52.354 336.3 13.5 328 9.5
2007-02-22 08:13:43 51°17.441 2°52.337 334.3 13.5 326 9.4
2007-02-22 08:13:47 51°17.453 2°52.324 333 13.4 326 9.5
2007-02-22 08:13:53 51°17.471 2°52.302 331.7 13.5 321 9.5
2007-02-22 08:13:58 51°17.485 2°52.281 326.3 13.5 317 9.5
2007-02-22 08:14:03 51°17.498 2°52.26 322.8 13.5 314 9.4
2007-02-22 08:14:08 51°17.51 2°52.238 320.1 13.4 312 9.6
2007-02-22 08:14:13 51°17.521 2°52.214 316.8 13.5 306 9.5
2007-02-22 08:14:18 51°17.532 2°52.19 312.6 13.4 305 9.7
2007-02-22 08:14:23 51°17.541 2°52.164 309.9 13.5 301 9.5
2007-02-22 08:14:28 51°17.551 2°52.138 306.3 13.5 299 9.6
2007-02-22 08:14:33 51°17.559 2°52.111 303.5 13.6 296 9.5
2007-02-22 08:14:38 51°17.566 2°52.083 300.6 13.6 295 9.4
2007-02-22 08:14:43 51°17.574 2°52.056 299.3 13.6 293 9.6
2007-02-22 08:14:48 51°17.581 2°52.028 297.5 13.6 293 9.4
2007-02-22 08:14:53 51°17.588 2°52 296.6 13.6 292 9.6
2007-02-22 08:14:58 51°17.595 2°51.972 295.8 13.6 291 9.6
2007-02-22 08:15:03 51°17.602 2°51.944 295.6 13.6 292 9.2
2007-02-22 08:15:08 51°17.609 2°51.916 295.7 13.7 291 9.4
2007-02-22 08:15:13 51°17.616 2°51.888 296.2 13.7 293 9.6
2007-02-22 08:15:18 51°17.623 2°51.86 296.8 13.6 293 9.3
2007-02-22 08:15:23 51°17.631 2°51.832 297.2 13.6 293 9.2
2007-02-22 08:15:28 51°17.638 2°51.805 297.8 13.6 294 9.2
2007-02-22 08:15:33 51°17.646 2°51.777 298.1 13.7 294 9.1
2007-02-22 08:15:38 51°17.654 2°51.749 298.3 13.7 294 9.2
2007-02-22 08:15:43 51°17.661 2°51.722 298.5 13.6 294 8.9
2007-02-22 08:15:48 51°17.669 2°51.694 298.6 13.6 294 9.2
2007-02-22 08:15:53 51°17.678 2°51.667 299 13.6 295 8.8
2007-02-22 08:15:58 51°17.686 2°51.639 299.2 13.6 295 8.9
2007-02-22 08:16:03 51°17.694 2°51.612 299.3 13.6 295 9
2007-02-22 08:16:08 51°17.702 2°51.584 299.3 13.7 294 9
2007-02-22 08:16:13 51°17.71 2°51.557 299.7 13.7 296 9
2007-02-22 08:16:18 51°17.718 2°51.53 299.8 13.7 295 8.8
2007-02-22 08:16:23 51°17.726 2°51.502 299.6 13.7 295 8.9
2007-02-22 08:16:28 51°17.734 2°51.475 299.3 13.7 295 8.7
2007-02-22 08:16:33 51°17.741 2°51.447 299.3 13.7 294 8.9
2007-02-22 08:16:38 51°17.75 2°51.419 299.6 13.8 295 9.1
2007-02-22 08:16:43 51°17.757 2°51.392 299.7 13.8 295 9.1
2007-02-22 08:16:48 51°17.766 2°51.364 299.6 13.8 295 9.3
2007-02-22 08:16:53 51°17.774 2°51.336 300 13.8 296 9
2007-02-22 08:16:58 51°17.782 2°51.309 300.1 13.8 296 9.1
2007-02-22 08:17:03 51°17.791 2°51.281 300.7 13.9 296 9.3
2007-02-22 08:17:08 51°17.8 2°51.254 301 13.8 296 9.2
2007-02-22 08:17:13 51°17.808 2°51.227 301.2 13.8 296 9.3
2007-02-22 08:17:18 51°17.817 2°51.199 301.1 13.9 297 9.7
2007-02-22 08:17:23 51°17.825 2°51.171 300.9 13.9 296 9.6
2007-02-22 08:17:28 51°17.834 2°51.144 300.8 13.9 296 9.7
2007-02-22 08:17:33 51°17.842 2°51.116 300.8 13.9 296 9.9
2007-02-22 08:17:38 51°17.85 2°51.088 300.9 13.9 296 10
2007-02-22 08:17:43 51°17.859 2°51.061 300.6 13.9 296 10.2
2007-02-22 08:17:48 51°17.867 2°51.033 300.7 13.9 296 10.3
2007-02-22 08:17:53 51°17.876 2°51.005 300.6 13.9 295 10.4
2007-02-22 08:17:58 51°17.884 2°50.977 300.6 13.9 296 10.5
2007-02-22 08:18:03 51°17.892 2°50.949 300.4 13.9 296 10.7
2007-02-22 08:18:08 51°17.901 2°50.922 300.5 13.9 296 10.8
2007-02-22 08:18:13 51°17.909 2°50.894 300.9 13.9 296 11
2007-02-22 08:18:18 51°17.918 2°50.867 301.1 13.9 297 11.2
2007-02-22 08:18:23 51°17.926 2°50.839 301.4 13.9 296 11.2
2007-02-22 08:18:28 51°17.935 2°50.812 301.4 13.9 297 11.1
2007-02-22 08:18:33 51°17.943 2°50.784 301.2 13.9 296 11.5
2007-02-22 08:18:38 51°17.952 2°50.757 301.2 13.8 297 11.3
2007-02-22 08:18:43 51°17.96 2°50.729 301.2 13.8 296 11.6
2007-02-22 08:18:48 51°17.969 2°50.702 301.4 13.9 297 11.7
2007-02-22 08:18:53 51°17.977 2°50.674 301.6 13.9 296 11.6
2007-02-22 08:18:58 51°17.986 2°50.647 301.4 13.8 296 11.8
2007-02-22 08:19:03 51°17.994 2°50.619 301.2 13.8 296 11.8
2007-02-22 08:19:08 51°18.003 2°50.592 301.2 13.8 296 12
2007-02-22 08:19:13 51°18.011 2°50.565 301.4 13.8 296 12
2007-02-22 08:19:18 51°18.02 2°50.537 301.3 13.9 296 11.9
2007-02-22 08:19:23 51°18.028 2°50.51 301.3 13.8 295 12
2007-02-22 08:19:28 51°18.037 2°50.482 301.2 13.9 296 12.1
2007-02-22 08:19:33 51°18.045 2°50.455 301.1 13.8 296 12.3
2007-02-22 08:19:38 51°18.053 2°50.427 301.1 13.9 296 12.1
2007-02-22 08:19:43 51°18.062 2°50.4 301.1 13.8 296 12.5
2007-02-22 08:19:48 51°18.07 2°50.373 300.8 13.8 296 12.6
2007-02-22 08:19:53 51°18.078 2°50.345 300.8 13.8 296 12.6
2007-02-22 08:19:58 51°18.087 2°50.317 300.6 13.8 296 12.6
2007-02-22 08:20:03 51°18.095 2°50.29 300.7 13.9 296 12.7
2007-02-22 08:20:08 51°18.104 2°50.262 300.8 13.8 296 12.8
2007-02-22 08:20:13 51°18.112 2°50.235 300.9 13.8 296 12.8
2007-02-22 08:20:18 51°18.121 2°50.207 300.7 13.9 297 12.9
2007-02-22 08:20:23 51°18.129 2°50.179 300.7 13.9 296 12.9
2007-02-22 08:20:28 51°18.137 2°50.152 300.4 13.8 295 12.9
2007-02-22 08:20:33 51°18.146 2°50.124 300.4 13.8 296 12.9
2007-02-22 08:20:38 51°18.154 2°50.096 300.5 13.8 295 13
2007-02-22 08:20:43 51°18.162 2°50.069 300 13.8 296 13.1
2007-02-22 08:20:48 51°18.17 2°50.041 300.2 13.8 295 13
2007-02-22 08:20:53 51°18.178 2°50.013 300 13.8 295 13.1
2007-02-22 08:20:58 51°18.186 2°49.986 299.7 13.8 295 12.9
2007-02-22 08:21:03 51°18.194 2°49.958 299.5 13.8 295 13
2007-02-22 08:21:08 51°18.202 2°49.93 299.5 13.8 294 12.9
2007-02-22 08:21:13 51°18.21 2°49.902 299.5 13.8 296 13
2007-02-22 08:21:18 51°18.217 2°49.875 299.7 13.8 295 12.9
2007-02-22 08:21:23 51°18.226 2°49.847 299.7 13.8 295 12.9
2007-02-22 08:21:28 51°18.233 2°49.819 299.7 13.8 295 12.8
2007-02-22 08:21:33 51°18.242 2°49.792 299.6 13.8 295 12.8
2007-02-22 08:21:38 51°18.25 2°49.764 299.4 13.8 295 12.7
2007-02-22 08:21:43 51°18.258 2°49.736 299.4 13.8 295 12.6
2007-02-22 08:21:48 51°18.266 2°49.708 299.6 13.8 295 12.3
2007-02-22 08:21:53 51°18.274 2°49.68 300 13.8 295 12.3
2007-02-22 08:21:58 51°18.282 2°49.653 299.9 13.8 295 12.3
2007-02-22 08:22:03 51°18.29 2°49.625 299.7 13.8 295 12.3
2007-02-22 08:22:08 51°18.298 2°49.597 299.7 13.8 295 11.9
2007-02-22 08:22:13 51°18.306 2°49.569 299.6 13.8 295 11.9
2007-02-22 08:22:18 51°18.315 2°49.542 299.8 13.8 296 11.6
2007-02-22 08:22:23 51°18.323 2°49.514 300.4 13.8 295 11.4
2007-02-22 08:22:28 51°18.331 2°49.487 300.2 13.8 296 11.1
2007-02-22 08:22:33 51°18.339 2°49.459 300.2 13.8 295 10.4
2007-02-22 08:22:38 51°18.347 2°49.432 300.2 13.7 295 10.4
2007-02-22 08:22:43 51°18.355 2°49.404 300 13.7 295 10.4
2007-02-22 08:22:48 51°18.363 2°49.377 300.1 13.8 296 10.6
2007-02-22 08:22:53 51°18.372 2°49.349 300.3 13.8 295 10.4
2007-02-22 08:22:58 51°18.38 2°49.322 300.3 13.8 296 10.3
2007-02-22 08:23:03 51°18.388 2°49.294 300 13.8 295 10.1
2007-02-22 08:23:08 51°18.397 2°49.266 299.9 13.9 295 10
2007-02-22 08:23:13 51°18.405 2°49.239 300.2 13.9 296 9.7
2007-02-22 08:23:18 51°18.413 2°49.211 300.2 13.8 295 9.6
2007-02-22 08:23:23 51°18.422 2°49.184 300.2 13.8 296 9.3
2007-02-22 08:23:28 51°18.43 2°49.156 300.4 13.8 296 9.2
2007-02-22 08:23:33 51°18.438 2°49.129 300.4 13.8 296 9.2
2007-02-22 08:23:38 51°18.447 2°49.101 300.5 13.8 296 9.5
2007-02-22 08:23:43 51°18.455 2°49.073 300.2 13.9 295 9.5
2007-02-22 08:23:48 51°18.463 2°49.045 299.7 13.9 295 9.3
2007-02-22 08:23:53 51°18.471 2°49.017 299.2 14 295 9.4
2007-02-22 08:23:58 51°18.479 2°48.989 299.3 14 294 9.4
2007-02-22 08:24:03 51°18.487 2°48.961 299.1 14 295 9.5
2007-02-22 08:24:08 51°18.495 2°48.932 299 14 295 9.4
2007-02-22 08:24:13 51°18.504 2°48.904 299 14 295 9.3
2007-02-22 08:24:18 51°18.512 2°48.876 299.1 13.9 294 8.7
2007-02-22 08:24:23 51°18.52 2°48.849 299 13.9 295 9.1
2007-02-22 08:24:28 51°18.528 2°48.82 299.2 13.9 294 9.5
2007-02-22 08:24:33 51°18.536 2°48.792 299.3 14 295 9.7
2007-02-22 08:24:38 51°18.544 2°48.764 299.2 14.1 295 9.7
2007-02-22 08:24:43 51°18.552 2°48.736 298.9 14.2 295 9.9
2007-02-22 08:24:48 51°18.561 2°48.707 299 14.2 294 10
2007-02-22 08:24:53 51°18.569 2°48.679 299.2 14.2 296 9.8
2007-02-22 08:24:58 51°18.577 2°48.65 299 14.1 294 9.8
2007-02-22 08:25:03 51°18.585 2°48.622 298.8 14 294 10
2007-02-22 08:25:08 51°18.593 2°48.594 299 14.1 295 9.9
2007-02-22 08:25:13 51°18.601 2°48.566 299 14.1 295 10.4
2007-02-22 08:25:18 51°18.61 2°48.537 299 14.2 295 10.6
2007-02-22 08:25:23 51°18.618 2°48.509 299.2 14.2 295 10.9
2007-02-22 08:25:28 51°18.626 2°48.48 299.6 14.2 295 11.4
2007-02-22 08:25:33 51°18.635 2°48.452 299.6 14.2 294 11.6
2007-02-22 08:25:38 51°18.643 2°48.423 299.4 14.2 295 11.5
2007-02-22 08:25:43 51°18.651 2°48.395 299.4 14.1 295 11.4
2007-02-22 08:25:48 51°18.659 2°48.366 299.3 14.1 295 11.7
2007-02-22 08:25:53 51°18.667 2°48.338 299.1 14.1 295 11.9
2007-02-22 08:25:58 51°18.676 2°48.31 298.9 14.1 295 12.4
2007-02-22 08:26:03 51°18.684 2°48.281 299 14.1 294 12.6
2007-02-22 08:26:08 51°18.692 2°48.253 299 14 295 12.8
2007-02-22 08:26:13 51°18.7 2°48.225 299 14 295 12.9
2007-02-22 08:26:18 51°18.708 2°48.197 299 14 295 12.9
2007-02-22 08:26:23 51°18.716 2°48.169 299.2 14 295 13.1
2007-02-22 08:26:28 51°18.724 2°48.14 299.1 14 294 13.2
2007-02-22 08:26:33 51°18.732 2°48.112 298.9 14 295 13.4
2007-02-22 08:26:38 51°18.74 2°48.084 298.8 14 294 13.5
2007-02-22 08:26:43 51°18.748 2°48.056 298.3 14 293 13.8
2007-02-22 08:26:48 51°18.756 2°48.027 298.2 13.9 294 13.9
2007-02-22 08:26:53 51°18.763 2°47.999 298.1 13.9 293 14.1
2007-02-22 08:26:58 51°18.771 2°47.971 297.8 13.9 293 14.2
2007-02-22 08:27:03 51°18.779 2°47.942 297.8 13.9 294 14.3
2007-02-22 08:27:08 51°18.787 2°47.914 298.3 13.9 294 14.5
2007-02-22 08:27:13 51°18.794 2°47.886 298.3 13.9 292 14.6
2007-02-22 08:27:18 51°18.802 2°47.858 297.9 13.9 294 14.7
2007-02-22 08:27:23 51°18.81 2°47.829 298.3 13.9 293 15
2007-02-22 08:27:28 51°18.817 2°47.801 298.3 13.9 294 15.2
2007-02-22 08:27:33 51°18.825 2°47.773 298.2 13.9 293 15.4
2007-02-22 08:27:38 51°18.833 2°47.745 298 13.9 294 15.8
2007-02-22 08:27:43 51°18.84 2°47.716 298.2 14 292 16
2007-02-22 08:27:48 51°18.848 2°47.688 297.9 13.9 294 16.4
2007-02-22 08:27:53 51°18.855 2°47.659 298.2 13.9 293 16.7
2007-02-22 08:27:58 51°18.863 2°47.631 298.3 13.9 294 17.2
2007-02-22 08:28:03 51°18.871 2°47.603 298.4 13.9 293 17.5
2007-02-22 08:28:08 51°18.878 2°47.574 298.2 13.9 293 17.8
2007-02-22 08:28:13 51°18.886 2°47.546 298 13.9 293 17.8
2007-02-22 08:28:18 51°18.893 2°47.517 298 14 292 17.8
2007-02-22 08:28:23 51°18.901 2°47.489 298.1 13.9 293 17.6
2007-02-22 08:28:28 51°18.908 2°47.461 298 13.9 292 17.6
2007-02-22 08:28:33 51°18.916 2°47.433 298.1 13.9 294 17.7
2007-02-22 08:28:38 51°18.923 2°47.404 298.5 13.9 293 17.8
2007-02-22 08:28:43 51°18.931 2°47.376 298.6 13.9 293 17.9
2007-02-22 08:28:48 51°18.938 2°47.347 298.2 13.9 293 18
2007-02-22 08:28:53 51°18.946 2°47.319 298 13.9 293 18.2
2007-02-22 08:28:58 51°18.953 2°47.29 297.8 13.9 292 18.4
2007-02-22 08:29:03 51°18.96 2°47.262 297.7 13.9 293 18.6
2007-02-22 08:29:08 51°18.968 2°47.234 298.1 13.9 293 18.8
2007-02-22 08:29:13 51°18.975 2°47.205 298 13.9 292 19
2007-02-22 08:29:18 51°18.983 2°47.177 298 13.9 293 19
2007-02-22 08:29:23 51°18.99 2°47.149 298.2 13.9 292 19.1
2007-02-22 08:29:28 51°18.997 2°47.121 298.3 13.8 293 19.3
2007-02-22 08:29:33 51°19.005 2°47.092 298.5 13.8 293 19.5
2007-02-22 08:29:38 51°19.013 2°47.064 298.4 13.8 293 19.4
2007-02-22 08:29:43 51°19.02 2°47.036 298.7 13.9 292 19.7
2007-02-22 08:29:48 51°19.027 2°47.008 298.3 13.9 293 19.8
2007-02-22 08:29:53 51°19.034 2°46.979 298.2 13.9 292 19.9
2007-02-22 08:29:58 51°19.042 2°46.951 298.4 13.9 293 20
2007-02-22 08:30:03 51°19.049 2°46.923 298.4 13.9 292 20.1
2007-02-22 08:30:08 51°19.056 2°46.894 297.9 13.9 292 20.1
2007-02-22 08:30:13 51°19.064 2°46.866 298.2 13.9 293 20.2
2007-02-22 08:30:18 51°19.071 2°46.837 297.9 13.9 292 20.1
2007-02-22 08:30:23 51°19.078 2°46.809 297.9 13.9 293 20.1
2007-02-22 08:30:28 51°19.085 2°46.781 297.8 13.9 292 20
2007-02-22 08:30:33 51°19.093 2°46.752 298 13.8 294 20.1
2007-02-22 08:30:38 51°19.1 2°46.724 298.3 13.9 292 20.1
2007-02-22 08:30:43 51°19.107 2°46.696 298 13.8 293 20.1
2007-02-22 08:30:48 51°19.115 2°46.667 298.2 13.9 293 20.2
2007-02-22 08:30:53 51°19.122 2°46.639 298.3 13.9 293 20
2007-02-22 08:30:58 51°19.13 2°46.611 298.6 13.9 293 20.2
2007-02-22 08:31:03 51°19.137 2°46.583 298.5 13.9 293 20.3
2007-02-22 08:31:08 51°19.145 2°46.554 298.3 13.8 293 20.3
2007-02-22 08:31:13 51°19.152 2°46.526 298.3 13.9 293 20.5
2007-02-22 08:31:18 51°19.16 2°46.497 298.2 13.9 293 20.2
2007-02-22 08:31:23 51°19.167 2°46.469 298.3 13.9 292 20
2007-02-22 08:31:28 51°19.174 2°46.441 298.3 13.9 293 18.9
2007-02-22 08:31:33 51°19.182 2°46.412 298.2 13.9 293 19.9
2007-02-22 08:31:38 51°19.189 2°46.384 298.3 13.9 293 19.9
2007-02-22 08:31:43 51°19.197 2°46.356 298.5 13.9 293 19.9
2007-02-22 08:31:48 51°19.204 2°46.327 298.5 13.9 293 19.9
2007-02-22 08:31:53 51°19.212 2°46.299 298.6 13.9 293 19.8
2007-02-22 08:31:58 51°19.22 2°46.271 298.3 13.9 293 19.6
2007-02-22 08:32:03 51°19.227 2°46.243 298.3 13.9 294 19.5
2007-02-22 08:32:08 51°19.235 2°46.214 298.5 13.8 293 19.1
2007-02-22 08:32:13 51°19.242 2°46.186 298.5 13.9 293 18.9
2007-02-22 08:32:18 51°19.25 2°46.158 297.9 13.9 293 18.9
2007-02-22 08:32:23 51°19.257 2°46.13 297.9 13.9 293 18.5
2007-02-22 08:32:28 51°19.265 2°46.101 297.9 13.9 293 17.6
2007-02-22 08:32:33 51°19.272 2°46.073 298 13.9 293 17.3
2007-02-22 08:32:38 51°19.28 2°46.044 298.3 13.8 293 16.7
2007-02-22 08:32:43 51°19.287 2°46.016 298.4 13.9 293 16.3
2007-02-22 08:32:48 51°19.295 2°45.988 298.6 13.9 294 17.1
2007-02-22 08:32:53 51°19.302 2°45.96 298.3 13.9 292 17.1
2007-02-22 08:32:58 51°19.31 2°45.931 298.2 13.9 293 16.9
2007-02-22 08:33:03 51°19.317 2°45.903 298 14 292 15.6
2007-02-22 08:33:08 51°19.325 2°45.875 298.1 13.9 294 16.1
2007-02-22 08:33:13 51°19.332 2°45.846 298 14 292 16
2007-02-22 08:33:18 51°19.34 2°45.817 297.6 13.9 292 15.4
2007-02-22 08:33:23 51°19.347 2°45.789 297.3 13.9 292 14.3
2007-02-22 08:33:28 51°19.355 2°45.761 297.7 13.9 293 15.4
2007-02-22 08:33:33 51°19.363 2°45.732 298.4 14 294 14.8
2007-02-22 08:33:38 51°19.37 2°45.704 299 14 293 13.7
2007-02-22 08:33:43 51°19.378 2°45.675 298.6 13.9 294 13.5
2007-02-22 08:33:48 51°19.386 2°45.647 298.6 14 294 12.2
2007-02-22 08:33:53 51°19.394 2°45.619 298.8 14 294 13.1
2007-02-22 08:33:58 51°19.402 2°45.591 299 14 294 11.9
2007-02-22 08:34:03 51°19.41 2°45.562 299.4 14 294 11.8
2007-02-22 08:34:08 51°19.418 2°45.534 299.4 14 295 12
2007-02-22 08:34:13 51°19.426 2°45.506 299.7 14 295 10
2007-02-22 08:34:18 51°19.434 2°45.478 299.7 14 294 11.2
2007-02-22 08:34:23 51°19.443 2°45.45 299.7 14 295 11.6
2007-02-22 08:34:28 51°19.451 2°45.421 299.4 14.1 295 11.4
2007-02-22 08:34:33 51°19.459 2°45.393 299.2 14.1 295 10.1
2007-02-22 08:34:38 51°19.467 2°45.364 299.4 14.2 294 9.6
2007-02-22 08:34:43 51°19.476 2°45.336 299.1 14.1 295 9.8
2007-02-22 08:34:48 51°19.483 2°45.308 299.2 14 293 9.6
2007-02-22 08:34:53 51°19.492 2°45.28 299.4 14.1 295 10.8
2007-02-22 08:34:58 51°19.5 2°45.251 299.6 14.2 294 10.1
2007-02-22 08:35:03 51°19.508 2°45.223 299.3 14.3 295 11.4
2007-02-22 08:35:08 51°19.517 2°45.194 299.3 14.4 295 12.5
2007-02-22 08:35:13 51°19.525 2°45.165 299.9 14.4 294 13.6
2007-02-22 08:35:18 51°19.534 2°45.135 299.7 14.9 296 15.1
2007-02-22 08:35:23 51°19.542 2°45.106 299.2 14.7 295 16
2007-02-22 08:35:28 51°19.551 2°45.078 299.5 14.3 295 15.2
2007-02-22 08:35:33 51°19.559 2°45.049 299.3 14.3 296 16.8
2007-02-22 08:35:38 51°19.567 2°45.02 299.2 14.2 294 17.6
2007-02-22 08:35:43 51°19.575 2°44.991 299.3 14.2 294 18.6
2007-02-22 08:35:48 51°19.583 2°44.963 299 14.1 295 19.6
2007-02-22 08:35:53 51°19.592 2°44.935 299.3 14.1 295 19.8
2007-02-22 08:35:58 51°19.599 2°44.906 298.7 14.1 294 20
2007-02-22 08:36:03 51°19.608 2°44.878 299.1 14 294 20.3
2007-02-22 08:36:08 51°19.615 2°44.849 298.7 14 294 20.3
2007-02-22 08:36:13 51°19.623 2°44.821 298.8 14 295 20.5
2007-02-22 08:36:18 51°19.631 2°44.793 299.1 14 294 20.7
2007-02-22 08:36:23 51°19.639 2°44.765 298.6 13.9 294 20.8
2007-02-22 08:36:28 51°19.647 2°44.737 299.3 13.9 295 20.8
2007-02-22 08:36:33 51°19.655 2°44.709 298.9 13.9 294 20.9
2007-02-22 08:36:38 51°19.663 2°44.681 299.1 13.9 294 20.9
2007-02-22 08:36:43 51°19.67 2°44.652 299 13.9 293 21
2007-02-22 08:36:48 51°19.678 2°44.624 298.6 13.9 295 21.1
2007-02-22 08:36:53 51°19.686 2°44.596 298.9 13.9 294 21.2
2007-02-22 08:36:58 51°19.694 2°44.568 299 13.9 294 21.3
2007-02-22 08:37:03 51°19.702 2°44.54 299 13.9 294 21.4
2007-02-22 08:37:08 51°19.71 2°44.512 299 13.9 294 21.6
2007-02-22 08:37:13 51°19.718 2°44.484 299.1 13.8 295 21.7
2007-02-22 08:37:18 51°19.725 2°44.456 299.5 13.9 294 21.9
2007-02-22 08:37:23 51°19.733 2°44.428 299.4 13.9 295 21.8
2007-02-22 08:37:28 51°19.741 2°44.4 299.7 14 294 22.2
2007-02-22 08:37:33 51°19.749 2°44.372 299.7 13.9 295 22.4
2007-02-22 08:37:38 51°19.757 2°44.343 299.7 14 293 22.6
2007-02-22 08:37:43 51°19.765 2°44.315 299.6 13.9 295 22.5
2007-02-22 08:37:48 51°19.773 2°44.287 299.2 14 293 22.6
2007-02-22 08:37:53 51°19.781 2°44.259 298.9 13.9 294 22.6
2007-02-22 08:37:58 51°19.788 2°44.231 299.3 13.8 294 22.3
2007-02-22 08:38:03 51°19.796 2°44.202 299.2 13.9 294 22.6
2007-02-22 08:38:08 51°19.804 2°44.175 299.5 13.8 294 22.9
2007-02-22 08:38:13 51°19.812 2°44.147 299.5 13.8 294 22.8
2007-02-22 08:38:18 51°19.82 2°44.119 299.4 13.8 294 23
2007-02-22 08:38:23 51°19.828 2°44.091 299.6 13.8 295 23.1
2007-02-22 08:38:28 51°19.836 2°44.063 299.9 13.7 294 23.1
2007-02-22 08:38:33 51°19.844 2°44.035 299.7 13.8 295 23
2007-02-22 08:38:38 51°19.851 2°44.007 299.7 13.8 293 22.9
2007-02-22 08:38:43 51°19.859 2°43.98 299.5 13.8 295 22.7
2007-02-22 08:38:48 51°19.866 2°43.951 299.7 13.9 293 22
2007-02-22 08:38:53 51°19.874 2°43.923 299.2 13.8 294 22.5
2007-02-22 08:38:58 51°19.882 2°43.895 299.7 13.8 294 23
2007-02-22 08:39:03 51°19.89 2°43.867 300.1 13.8 295 23.4
2007-02-22 08:39:08 51°19.898 2°43.839 300 13.9 293 24
2007-02-22 08:39:13 51°19.906 2°43.811 299.7 13.8 295 24.2
2007-02-22 08:39:18 51°19.914 2°43.783 299.7 13.9 294 24.2
2007-02-22 08:39:23 51°19.922 2°43.755 300.2 13.9 295 24.7
2007-02-22 08:39:28 51°19.93 2°43.728 300.4 13.8 296 25
2007-02-22 08:39:33 51°19.938 2°43.7 300.4 13.9 295 25.2
2007-02-22 08:39:38 51°19.946 2°43.672 300.4 13.8 295 25.4
2007-02-22 08:39:43 51°19.954 2°43.644 300.1 13.9 295 25.3
2007-02-22 08:39:48 51°19.963 2°43.617 300.4 13.9 295 25.5
2007-02-22 08:39:53 51°19.97 2°43.588 299.7 13.9 294 25.6
2007-02-22 08:39:58 51°19.979 2°43.561 299.7 13.9 295 25.6
2007-02-22 08:40:03 51°19.986 2°43.533 299.3 13.9 294 25.5
2007-02-22 08:40:08 51°19.994 2°43.505 298.8 13.9 294 25.7
2007-02-22 08:40:13 51°20.002 2°43.477 299 13.9 295 25.7
2007-02-22 08:40:18 51°20.01 2°43.449 299.1 13.8 293 25.6
2007-02-22 08:40:23 51°20.017 2°43.421 298.5 13.8 294 25.4
2007-02-22 08:40:28 51°20.025 2°43.393 298.8 13.8 294 25.1
2007-02-22 08:40:33 51°20.033 2°43.365 299 13.9 295 25
2007-02-22 08:40:38 51°20.041 2°43.337 299.4 13.8 294 25
2007-02-22 08:40:43 51°20.049 2°43.309 299 13.9 295 25.1
2007-02-22 08:40:48 51°20.057 2°43.281 299.2 13.9 293 25
2007-02-22 08:40:53 51°20.065 2°43.254 299.2 13.9 296 25.3
2007-02-22 08:40:58 51°20.073 2°43.225 299.2 13.9 294 25.3
2007-02-22 08:41:03 51°20.081 2°43.198 299.4 13.8 294 25.1
2007-02-22 08:41:08 51°20.089 2°43.17 298.9 13.9 294 25.1
2007-02-22 08:41:13 51°20.097 2°43.142 299.1 13.9 295 25.3
2007-02-22 08:41:18 51°20.105 2°43.114 299.5 13.9 294 25.2
2007-02-22 08:41:23 51°20.113 2°43.086 299.4 13.9 294 25.3
2007-02-22 08:41:28 51°20.121 2°43.058 299.3 13.9 295 25.2
2007-02-22 08:41:33 51°20.129 2°43.03 299.2 13.9 295 25.1
2007-02-22 08:41:38 51°20.137 2°43.002 299.7 13.9 294 24.9
2007-02-22 08:41:43 51°20.145 2°42.974 299.6 13.9 294 24.7
2007-02-22 08:41:48 51°20.153 2°42.946 299 13.9 294 24.5
2007-02-22 08:41:53 51°20.161 2°42.918 299.3 13.9 295 24.5
2007-02-22 08:41:58 51°20.169 2°42.89 299.6 13.9 294 23
2007-02-22 08:42:03 51°20.177 2°42.861 299.1 13.9 294 23.6
2007-02-22 08:42:08 51°20.185 2°42.834 299.3 14 295 23.9
2007-02-22 08:42:13 51°20.193 2°42.805 299.5 13.9 294 23.8
2007-02-22 08:42:18 51°20.201 2°42.777 299.3 13.9 295 23.7
2007-02-22 08:42:23 51°20.209 2°42.749 299.4 13.9 295 23.7
2007-02-22 08:42:28 51°20.217 2°42.721 299.4 13.9 294 23.7
2007-02-22 08:42:33 51°20.225 2°42.693 299 14 294 23.5
2007-02-22 08:42:38 51°20.233 2°42.665 298.7 14 293 23.2
2007-02-22 08:42:43 51°20.241 2°42.636 298.6 14 294 22.4
2007-02-22 08:42:48 51°20.248 2°42.608 299 14 293 22.1
2007-02-22 08:42:53 51°20.256 2°42.58 299.2 14 295 20.1
2007-02-22 08:42:58 51°20.264 2°42.551 299 13.8 294 21.6
2007-02-22 08:43:03 51°20.272 2°42.524 299.5 13.9 295 22.2
2007-02-22 08:43:08 51°20.28 2°42.495 299.6 14 294 22.1
2007-02-22 08:43:13 51°20.288 2°42.467 299.2 14 294 21.5
2007-02-22 08:43:18 51°20.296 2°42.439 298.8 14 295 19.6
2007-02-22 08:43:23 51°20.304 2°42.411 299 13.9 294 20.8
2007-02-22 08:43:28 51°20.313 2°42.383 299.1 13.9 296 20.7
2007-02-22 08:43:33 51°20.321 2°42.355 299.8 14 294 20.8
2007-02-22 08:43:38 51°20.329 2°42.327 299.7 14.1 295 19.7
2007-02-22 08:43:43 51°20.337 2°42.299 299.3 14 295 19.1
2007-02-22 08:43:48 51°20.345 2°42.271 299.5 13.9 295 17.6
2007-02-22 08:43:53 51°20.353 2°42.243 298.9 14 295 17.8
2007-02-22 08:43:58 51°20.362 2°42.214 299.3 14 295 16.8
2007-02-22 08:44:03 51°20.37 2°42.186 299.4 14 294 13.6
2007-02-22 08:44:08 51°20.378 2°42.158 298.3 14.1 294 16.6
2007-02-22 08:44:13 51°20.385 2°42.129 298.5 14.1 294 18.1
2007-02-22 08:44:18 51°20.394 2°42.101 298.7 14.1 293 17.5
2007-02-22 08:44:23 51°20.401 2°42.072 298.1 14.1 294 17
2007-02-22 08:44:28 51°20.41 2°42.044 299 14.1 295 17.3
2007-02-22 08:44:33 51°20.418 2°42.015 298.7 14 294 17.7
2007-02-22 08:44:38 51°20.426 2°41.987 299 14.1 295 17.8
2007-02-22 08:44:43 51°20.435 2°41.959 299.6 14.2 295 17.9
2007-02-22 08:44:48 51°20.443 2°41.931 299.5 14.1 295 16
2007-02-22 08:44:53 51°20.451 2°41.903 299 14 295 17.5
2007-02-22 08:44:58 51°20.459 2°41.874 299 14.1 294 19.1
2007-02-22 08:45:03 51°20.467 2°41.846 299.2 14.1 295 18.7
2007-02-22 08:45:08 51°20.476 2°41.818 299.4 14.2 296 18.6
2007-02-22 08:45:13 51°20.484 2°41.79 299.4 14.1 295 19.3
2007-02-22 08:45:18 51°20.493 2°41.761 299.4 14.2 295 20
2007-02-22 08:45:23 51°20.5 2°41.733 298.8 14.1 294 20
2007-02-22 08:45:28 51°20.509 2°41.704 298.9 14.1 294 19.4
2007-02-22 08:45:33 51°20.516 2°41.675 298.4 14.1 294 18.8
2007-02-22 08:45:38 51°20.524 2°41.647 298 14 294 19.1
2007-02-22 08:45:43 51°20.532 2°41.619 298.8 14 294 18.6
2007-02-22 08:45:48 51°20.54 2°41.591 299.4 14 295 18.1
2007-02-22 08:45:53 51°20.548 2°41.562 299.5 14 293 18.8
2007-02-22 08:45:58 51°20.556 2°41.534 298.9 14.1 295 19.2
2007-02-22 08:46:03 51°20.564 2°41.505 299 14 294 20
2007-02-22 08:46:08 51°20.573 2°41.478 298.7 14 295 21.2
2007-02-22 08:46:13 51°20.581 2°41.45 298.6 13.9 295 21.9
2007-02-22 08:46:18 51°20.589 2°41.421 299.3 13.9 294 22.6
2007-02-22 08:46:23 51°20.597 2°41.393 299.4 14 295 23.1
2007-02-22 08:46:28 51°20.605 2°41.365 299.4 14 294 23.2
2007-02-22 08:46:33 51°20.613 2°41.337 299.6 13.9 296 24
2007-02-22 08:46:38 51°20.621 2°41.309 299.2 13.9 295 25.1
2007-02-22 08:46:43 51°20.63 2°41.281 299.9 14.1 296 25.8
2007-02-22 08:46:48 51°20.638 2°41.253 299.7 14.1 295 26.2
2007-02-22 08:46:53 51°20.646 2°41.225 299.8 14 294 26.3
2007-02-22 08:46:58 51°20.654 2°41.196 299.3 14 295 26.2
2007-02-22 08:47:03 51°20.663 2°41.169 299.4 14 295 25.8
2007-02-22 08:47:08 51°20.67 2°41.141 299.6 13.9 294 25.7
2007-02-22 08:47:13 51°20.678 2°41.113 299.2 13.9 295 25.4
2007-02-22 08:47:18 51°20.686 2°41.084 299 14 295 25.5
2007-02-22 08:47:23 51°20.694 2°41.057 299.4 13.9 295 25.9
2007-02-22 08:47:28 51°20.703 2°41.028 299.2 13.9 295 25.8
2007-02-22 08:47:33 51°20.71 2°41 299.7 13.9 292 25.8
2007-02-22 08:47:38 51°20.716 2°40.971 296.2 13.9 289 25.8
2007-02-22 08:47:43 51°20.722 2°40.941 293.3 13.8 287 25.5
2007-02-22 08:47:48 51°20.726 2°40.912 289.8 13.8 284 25.6
2007-02-22 08:47:53 51°20.73 2°40.882 288.1 13.7 282 25
2007-02-22 08:47:58 51°20.734 2°40.852 285.2 13.7 280 25.1
2007-02-22 08:48:03 51°20.736 2°40.822 283.2 13.7 279 25.3
2007-02-22 08:48:08 51°20.739 2°40.792 281.8 13.7 277 25.1
2007-02-22 08:48:13 51°20.741 2°40.762 280.2 13.7 276 25.3
2007-02-22 08:48:18 51°20.743 2°40.732 279.9 13.8 277 25.3
2007-02-22 08:48:23 51°20.745 2°40.701 279.6 13.8 275 25.4
2007-02-22 08:48:28 51°20.747 2°40.671 278.7 13.8 276 25.4
2007-02-22 08:48:33 51°20.748 2°40.64 279.4 13.9 275 24.7
2007-02-22 08:48:38 51°20.751 2°40.61 279.3 13.9 276 24.7
2007-02-22 08:48:43 51°20.752 2°40.579 278.9 13.9 275 24.8
2007-02-22 08:48:48 51°20.754 2°40.548 278.7 13.8 275 24.5
2007-02-22 08:48:53 51°20.756 2°40.518 278.9 13.8 276 24.8
2007-02-22 08:48:58 51°20.758 2°40.488 278.7 13.7 276 24.6
2007-02-22 08:49:03 51°20.76 2°40.458 278.6 13.7 276 24.8
2007-02-22 08:49:08 51°20.762 2°40.427 278.3 13.7 276 25
2007-02-22 08:49:13 51°20.764 2°40.397 278.7 13.8 275 25
2007-02-22 08:49:18 51°20.765 2°40.367 278.7 13.7 275 25
2007-02-22 08:49:23 51°20.767 2°40.336 278.7 13.7 276 25.1
2007-02-22 08:49:28 51°20.769 2°40.306 279 13.8 276 25.1
2007-02-22 08:49:33 51°20.771 2°40.276 279.4 13.8 275 24.6
2007-02-22 08:49:38 51°20.773 2°40.245 278.9 13.9 276 24.5
2007-02-22 08:49:43 51°20.775 2°40.215 278.7 13.9 276 24.5
2007-02-22 08:49:48 51°20.777 2°40.184 278.8 13.9 276 24.8
2007-02-22 08:49:53 51°20.779 2°40.154 278.9 13.8 276 24.8
2007-02-22 08:49:58 51°20.781 2°40.123 279.6 13.9 276 25.2
2007-02-22 08:50:03 51°20.783 2°40.092 279.3 14 276 25.2
2007-02-22 08:50:08 51°20.785 2°40.062 279.5 13.9 276 25.2
2007-02-22 08:50:13 51°20.787 2°40.031 278.7 13.8 276 25.4
2007-02-22 08:50:18 51°20.789 2°40 279 13.9 277 25.3
2007-02-22 08:50:23 51°20.791 2°39.97 279.6 13.9 275 25
2007-02-22 08:50:28 51°20.793 2°39.939 279.3 13.9 275 25.1
2007-02-22 08:50:33 51°20.795 2°39.908 278.7 13.9 277 24.6
2007-02-22 08:50:38 51°20.797 2°39.878 279.1 14 276 24.6
2007-02-22 08:50:43 51°20.799 2°39.847 279.5 14 277 24.2
2007-02-22 08:50:48 51°20.801 2°39.816 279.3 14 277 24.2
2007-02-22 08:50:53 51°20.804 2°39.786 280.2 13.9 277 24.4
2007-02-22 08:50:58 51°20.806 2°39.755 280 13.9 277 24.3
2007-02-22 08:51:03 51°20.808 2°39.724 279.7 13.9 276 23.9
2007-02-22 08:51:08 51°20.81 2°39.693 279.3 14 275 23.6
2007-02-22 08:51:13 51°20.811 2°39.662 279 14 275 23.7
2007-02-22 08:51:18 51°20.814 2°39.632 278.9 14 277 23.7
2007-02-22 08:51:23 51°20.815 2°39.601 279.4 14 275 23.7
2007-02-22 08:51:28 51°20.818 2°39.57 279 14 278 23.2
2007-02-22 08:51:33 51°20.82 2°39.539 279.9 14 276 22.4
2007-02-22 08:51:38 51°20.822 2°39.508 279.9 14 278 23.1
2007-02-22 08:51:43 51°20.824 2°39.477 279.4 14 276 23.6
2007-02-22 08:51:48 51°20.827 2°39.447 280.1 14 278 23.3
2007-02-22 08:51:53 51°20.829 2°39.416 280.2 13.9 276 23.2
2007-02-22 08:51:58 51°20.831 2°39.385 280 14 277 23.5
2007-02-22 08:52:03 51°20.834 2°39.354 280 14 278 23.4
2007-02-22 08:52:08 51°20.836 2°39.324 279.9 13.9 275 23.1
2007-02-22 08:52:13 51°20.838 2°39.293 279.3 14 277 22.8
2007-02-22 08:52:18 51°20.84 2°39.263 279.4 13.9 277 23.4
2007-02-22 08:52:23 51°20.842 2°39.232 279.4 13.9 276 23.6
2007-02-22 08:52:28 51°20.845 2°39.201 279.4 14 277 23.6
2007-02-22 08:52:33 51°20.847 2°39.171 279.5 13.9 276 23.6
2007-02-22 08:52:38 51°20.849 2°39.14 279.8 13.9 277 23.5
2007-02-22 08:52:43 51°20.851 2°39.109 279.5 13.9 276 23.3
2007-02-22 08:52:48 51°20.854 2°39.079 279.4 13.9 277 23.2
2007-02-22 08:52:53 51°20.855 2°39.048 279.4 13.9 276 22.8
2007-02-22 08:52:58 51°20.857 2°39.017 278.8 13.9 275 23.8
2007-02-22 08:53:03 51°20.859 2°38.987 277.9 14 275 23.8
2007-02-22 08:53:08 51°20.86 2°38.956 277.1 14 274 23.6
2007-02-22 08:53:13 51°20.861 2°38.925 277.1 14 274 23.2
2007-02-22 08:53:18 51°20.862 2°38.894 276.4 14 273 23.2
2007-02-22 08:53:23 51°20.863 2°38.863 276.1 13.9 273 23.5
2007-02-22 08:53:28 51°20.865 2°38.832 275.9 14 274 23.6
2007-02-22 08:53:33 51°20.866 2°38.801 277.1 14 274 23.4
2007-02-22 08:53:38 51°20.867 2°38.77 276.7 14 274 23.5
2007-02-22 08:53:43 51°20.868 2°38.739 276.9 14 273 23.2
2007-02-22 08:53:48 51°20.869 2°38.708 276.5 14 273 23
2007-02-22 08:53:53 51°20.87 2°38.677 276.4 14 273 23.4
2007-02-22 08:53:58 51°20.872 2°38.646 276.8 14 274 23.4
2007-02-22 08:54:03 51°20.873 2°38.615 276.6 14 274 23.2
2007-02-22 08:54:08 51°20.874 2°38.584 276.8 14 274 23
2007-02-22 08:54:13 51°20.875 2°38.553 276.7 14 273 23.2
2007-02-22 08:54:18 51°20.876 2°38.522 276.6 14 274 23.1
2007-02-22 08:54:23 51°20.877 2°38.491 276.5 14 273 23.2
2007-02-22 08:54:28 51°20.879 2°38.46 276.8 14 274 23
2007-02-22 08:54:33 51°20.88 2°38.429 277.2 14.1 274 22.5
2007-02-22 08:54:38 51°20.882 2°38.398 277.4 14 274 22.8
2007-02-22 08:54:43 51°20.883 2°38.367 277.5 14 274 23
2007-02-22 08:54:48 51°20.885 2°38.337 277.1 14 274 22.5
2007-02-22 08:54:53 51°20.886 2°38.306 277.8 14 274 21.7
2007-02-22 08:54:58 51°20.887 2°38.274 277.3 14 274 22.8
2007-02-22 08:55:03 51°20.889 2°38.243 277.2 14.1 273 22.8
2007-02-22 08:55:08 51°20.89 2°38.212 276.6 14.1 275 22.8
2007-02-22 08:55:13 51°20.891 2°38.181 277.1 14.2 273 22.5
2007-02-22 08:55:18 51°20.892 2°38.15 276.5 14.1 274 22.6
2007-02-22 08:55:23 51°20.894 2°38.118 276.6 14.1 273 22.6
2007-02-22 08:55:28 51°20.895 2°38.088 276.6 14 274 22.7
2007-02-22 08:55:33 51°20.896 2°38.056 277.2 14.1 273 21.7
2007-02-22 08:55:38 51°20.897 2°38.025 276.5 14.1 274 20.5
2007-02-22 08:55:43 51°20.898 2°37.994 276.9 14.1 274 23.1
2007-02-22 08:55:48 51°20.9 2°37.963 277 14.1 273 23.5
2007-02-22 08:55:53 51°20.901 2°37.932 276.5 14.1 274 23.3
2007-02-22 08:55:58 51°20.902 2°37.901 276.7 14 273 23.3
2007-02-22 08:56:03 51°20.903 2°37.87 276.7 14 274 23.1
2007-02-22 08:56:08 51°20.905 2°37.839 276.8 14 274 23.3
2007-02-22 08:56:13 51°20.906 2°37.808 277.1 14 274 22.8
2007-02-22 08:56:18 51°20.908 2°37.777 277.4 14.1 275 23.3
2007-02-22 08:56:23 51°20.908 2°37.746 277.7 14.1 272 23
2007-02-22 08:56:28 51°20.911 2°37.715 277.6 14.1 276 21.7
2007-02-22 08:56:33 51°20.911 2°37.684 277.8 14.1 273 23.1
2007-02-22 08:56:38 51°20.913 2°37.653 277.3 14.1 274 23.3
2007-02-22 08:56:43 51°20.914 2°37.622 277.2 14.1 273 23.3
2007-02-22 08:56:48 51°20.915 2°37.59 277.2 14.1 274 23.3
2007-02-22 08:56:53 51°20.916 2°37.559 277.2 14.1 273 22.4
2007-02-22 08:56:58 51°20.918 2°37.528 277.1 14.1 275 22.5
2007-02-22 08:57:03 51°20.92 2°37.497 277.7 14.1 274 22.8
2007-02-22 08:57:08 51°20.921 2°37.466 277.5 14.1 273 21.9
2007-02-22 08:57:13 51°20.923 2°37.435 277.9 14 275 22.7
2007-02-22 08:57:18 51°20.924 2°37.404 277.9 14.1 274 23.3
2007-02-22 08:57:23 51°20.925 2°37.373 277.6 14 273 23.2
2007-02-22 08:57:28 51°20.927 2°37.342 277.1 14 275 23.2
2007-02-22 08:57:33 51°20.927 2°37.311 277.2 14 271 22.5
2007-02-22 08:57:38 51°20.929 2°37.28 277.1 14.1 276 21.4
2007-02-22 08:57:43 51°20.931 2°37.249 277.9 14.1 273 21.9
2007-02-22 08:57:48 51°20.932 2°37.218 277.7 14 274 22.4
2007-02-22 08:57:53 51°20.933 2°37.187 278.1 14 273 22.4
2007-02-22 08:57:58 51°20.934 2°37.156 277.1 14.1 274 20.5
2007-02-22 08:58:03 51°20.936 2°37.125 277.1 14.1 273 21.5
2007-02-22 08:58:08 51°20.937 2°37.093 277.2 14.1 274 21.3
2007-02-22 08:58:13 51°20.938 2°37.062 277.1 14.1 273 21.2
2007-02-22 08:58:18 51°20.939 2°37.031 276.8 14.1 274 21.4
2007-02-22 08:58:23 51°20.941 2°37 277.1 14.1 274 20.8
2007-02-22 08:58:28 51°20.941 2°36.968 276.7 14.2 272 21
2007-02-22 08:58:33 51°20.943 2°36.937 276.5 14.2 274 21.6
2007-02-22 08:58:38 51°20.944 2°36.906 276.7 14.2 273 21.8
2007-02-22 08:58:43 51°20.945 2°36.874 277.1 14.1 275 19.8
2007-02-22 08:58:48 51°20.947 2°36.843 278.1 14.1 274 21.4
2007-02-22 08:58:53 51°20.948 2°36.812 277.9 14.2 275 22.4
2007-02-22 08:58:58 51°20.95 2°36.78 278.7 14.2 275 22.6
2007-02-22 08:59:03 51°20.951 2°36.749 278.1 14.1 275 20.7
2007-02-22 08:59:08 51°20.953 2°36.718 278.1 14.2 275 22.1
2007-02-22 08:59:13 51°20.954 2°36.687 277.5 14.2 273 22.7
2007-02-22 08:59:18 51°20.956 2°36.655 277.6 14.2 275 22.8
2007-02-22 08:59:23 51°20.957 2°36.624 277.2 14.2 273 21.2
2007-02-22 08:59:28 51°20.958 2°36.593 277.2 14.2 274 23
2007-02-22 08:59:33 51°20.959 2°36.561 276.5 14.2 273 23.2
2007-02-22 08:59:38 51°20.961 2°36.53 276.2 14.1 274 23.2
2007-02-22 08:59:43 51°20.962 2°36.499 276.5 14.1 273 20.8
2007-02-22 08:59:48 51°20.963 2°36.468 276.7 14.1 274 22.7
2007-02-22 08:59:53 51°20.964 2°36.437 277 14.2 273 23.5
2007-02-22 08:59:58 51°20.965 2°36.405 276.8 14.1 274 24.3
2007-02-22 09:00:03 51°20.967 2°36.374 276.8 14.2 274 24.5
2007-02-22 09:00:08 51°20.968 2°36.343 276.9 14.2 274 22.1
2007-02-22 09:00:13 51°20.969 2°36.312 277.3 14 275 24.1
2007-02-22 09:00:18 51°20.971 2°36.281 277.5 14.1 275 23.4
2007-02-22 09:00:23 51°20.973 2°36.249 277.8 14.2 275 22.4
2007-02-22 09:00:28 51°20.974 2°36.218 277.6 14.1 273 23.9
2007-02-22 09:00:33 51°20.975 2°36.187 277.7 14.2 274 25.3
2007-02-22 09:00:38 51°20.976 2°36.156 277 14.1 274 25.4
2007-02-22 09:00:43 51°20.978 2°36.125 277.1 14 275 23
2007-02-22 09:00:48 51°20.979 2°36.094 277.9 14 274 23.7
2007-02-22 09:00:53 51°20.981 2°36.063 277.9 14.1 275 25.4
2007-02-22 09:00:58 51°20.982 2°36.031 277.4 14.1 273 26.8
2007-02-22 09:01:03 51°20.983 2°36 277.2 14.2 274 27.1
2007-02-22 09:01:08 51°20.985 2°35.969 277.6 14.2 274 26.2
2007-02-22 09:01:13 51°20.986 2°35.938 277.2 14.1 273 22.5
2007-02-22 09:01:18 51°20.987 2°35.906 277.4 14.2 274 24.1
2007-02-22 09:01:23 51°20.988 2°35.875 277.3 14.2 273 26.3
2007-02-22 09:01:28 51°20.989 2°35.844 277.1 14.2 273 26.5
2007-02-22 09:01:33 51°20.991 2°35.812 277.1 14.2 274 26.7
2007-02-22 09:01:38 51°20.992 2°35.781 277.2 14.2 274 27
2007-02-22 09:01:43 51°20.993 2°35.75 276.9 14.1 273 27.7
2007-02-22 09:01:48 51°20.994 2°35.719 277.7 14.1 274 28.5
2007-02-22 09:01:53 51°20.996 2°35.687 277.7 14.1 274 28.6
2007-02-22 09:01:58 51°20.997 2°35.657 277.1 14 274 29
2007-02-22 09:02:03 51°20.999 2°35.626 277.8 14 275 25.4
2007-02-22 09:02:08 51°21 2°35.595 277.5 14 275 27.9
2007-02-22 09:02:13 51°21.001 2°35.563 277.9 14 273 28.5
2007-02-22 09:02:18 51°21.003 2°35.532 277 14.1 274 29
2007-02-22 09:02:23 51°21.004 2°35.501 277.5 14 274 29.1
2007-02-22 09:02:28 51°21.005 2°35.47 276.7 14 273 29.7
2007-02-22 09:02:33 51°21.006 2°35.439 277.2 14 274 29.9
2007-02-22 09:02:38 51°21.007 2°35.408 277.5 14 273 30.5
2007-02-22 09:02:43 51°21.009 2°35.377 276.7 14.1 274 30.4
2007-02-22 09:02:48 51°21.01 2°35.346 277.3 14.1 274 29.5
2007-02-22 09:02:53 51°21.011 2°35.315 277.2 14 271 25.4
2007-02-22 09:02:58 51°21.012 2°35.283 276.7 14.1 274 27.6
2007-02-22 09:03:03 51°21.013 2°35.252 276.8 14.1 272 28.4
2007-02-22 09:03:08 51°21.014 2°35.221 276.7 14.2 274 29.5
2007-02-22 09:03:13 51°21.015 2°35.19 277.2 14.1 274 29.2
2007-02-22 09:03:18 51°21.017 2°35.159 277.9 14.2 274 29.4
2007-02-22 09:03:23 51°21.018 2°35.127 277.3 14.1 274 30
2007-02-22 09:03:28 51°21.019 2°35.096 277.9 14.1 273 30
2007-02-22 09:03:33 51°21.021 2°35.065 277.1 14.1 274 30.2
2007-02-22 09:03:38 51°21.022 2°35.034 277.8 14.1 274 30.3
2007-02-22 09:03:43 51°21.023 2°35.003 277.5 14.1 274 31
2007-02-22 09:03:48 51°21.025 2°34.971 276.8 14.2 274 30.6
2007-02-22 09:03:53 51°21.026 2°34.94 277.2 14.2 274 30.5
2007-02-22 09:03:58 51°21.027 2°34.909 276.9 14.1 273 30.1
2007-02-22 09:04:03 51°21.028 2°34.878 277 14.2 274 30.1
2007-02-22 09:04:08 51°21.03 2°34.846 277.8 14.1 275 29.8
2007-02-22 09:04:13 51°21.031 2°34.815 277.5 14.1 274 29.6
2007-02-22 09:04:18 51°21.032 2°34.784 277.2 14.1 272 29.7
2007-02-22 09:04:23 51°21.034 2°34.752 277 14.2 274 29.8
2007-02-22 09:04:28 51°21.035 2°34.721 277.2 14.2 273 29.9
2007-02-22 09:04:33 51°21.036 2°34.69 277 14.1 274 29.5
2007-02-22 09:04:38 51°21.038 2°34.659 277.7 14.1 273 29.4
2007-02-22 09:04:43 51°21.039 2°34.628 277.2 14.1 274 29.4
2007-02-22 09:04:48 51°21.04 2°34.596 277.2 14.1 274 29.5
2007-02-22 09:04:53 51°21.041 2°34.565 276.8 14.2 274 29.3
2007-02-22 09:04:58 51°21.043 2°34.534 277.2 14.1 275 29.3
2007-02-22 09:05:03 51°21.044 2°34.503 277.2 14.1 273 29.2
2007-02-22 09:05:08 51°21.045 2°34.472 277.2 14.1 274 29.3
2007-02-22 09:05:13 51°21.046 2°34.44 277.2 14.2 274 29.5
2007-02-22 09:05:18 51°21.047 2°34.409 276.9 14.2 274 29.8
2007-02-22 09:05:23 51°21.049 2°34.377 277.8 14.2 275 29.9
2007-02-22 09:05:28 51°21.05 2°34.346 277.3 14.2 274 29.9
2007-02-22 09:05:33 51°21.052 2°34.315 277.9 14.2 275 29.7
2007-02-22 09:05:38 51°21.053 2°34.283 277.1 14.2 274 29.4
2007-02-22 09:05:43 51°21.055 2°34.252 277.9 14.1 276 29.1
2007-02-22 09:05:48 51°21.056 2°34.221 278 14.2 273 29.2
2007-02-22 09:05:53 51°21.058 2°34.19 277.8 14.2 274 29.2
2007-02-22 09:05:58 51°21.059 2°34.158 277.5 14.2 274 29.3
2007-02-22 09:06:03 51°21.06 2°34.127 277.2 14.1 274 29.4
2007-02-22 09:06:08 51°21.061 2°34.095 277.2 14.2 274 29.3
2007-02-22 09:06:13 51°21.063 2°34.064 278 14.2 274 29.2
2007-02-22 09:06:18 51°21.064 2°34.033 278 14.2 274 29.2
2007-02-22 09:06:23 51°21.066 2°34.001 277.5 14.2 275 28.9
2007-02-22 09:06:28 51°21.067 2°33.97 277.5 14.1 274 28.8
2007-02-22 09:06:33 51°21.068 2°33.939 276.7 14.2 274 28.9
2007-02-22 09:06:38 51°21.07 2°33.907 277.2 14.2 274 29.7
2007-02-22 09:06:43 51°21.071 2°33.876 277.4 14.2 273 29.9
2007-02-22 09:06:48 51°21.072 2°33.845 276.9 14.2 273 30.2
2007-02-22 09:06:53 51°21.073 2°33.813 276.6 14.2 273 30.6
2007-02-22 09:06:58 51°21.075 2°33.782 277.3 14.2 272 30.8
2007-02-22 09:07:03 51°21.076 2°33.75 277.1 14.2 275 30.6
2007-02-22 09:07:08 51°21.077 2°33.719 277.8 14.2 275 30
2007-02-22 09:07:13 51°21.079 2°33.687 277.5 14.3 275 30.5
2007-02-22 09:07:18 51°21.08 2°33.656 277.9 14.2 274 30.7
2007-02-22 09:07:23 51°21.082 2°33.624 277.4 14.2 274 30.9
2007-02-22 09:07:28 51°21.083 2°33.593 277 14.2 274 30.9
2007-02-22 09:07:33 51°21.084 2°33.562 276.6 14.2 273 30.6
2007-02-22 09:07:38 51°21.086 2°33.53 276.7 14.1 274 30.7
2007-02-22 09:07:43 51°21.087 2°33.499 277.1 14.1 274 30.9
2007-02-22 09:07:48 51°21.088 2°33.468 277 14.1 274 30.3
2007-02-22 09:07:53 51°21.089 2°33.437 277.1 14.1 273 29.9
2007-02-22 09:07:58 51°21.091 2°33.406 276.5 14.1 274 29.5
2007-02-22 09:08:03 51°21.092 2°33.375 277.1 14.1 274 29.4
2007-02-22 09:08:08 51°21.094 2°33.344 277.6 14.1 275 29.5
2007-02-22 09:08:13 51°21.095 2°33.312 277.2 14.1 274 29.4
2007-02-22 09:08:18 51°21.096 2°33.281 277.4 14.1 273 28.9
2007-02-22 09:08:23 51°21.097 2°33.25 276.5 14.1 272 28.8
2007-02-22 09:08:28 51°21.099 2°33.219 276.6 14.1 276 28.9
2007-02-22 09:08:33 51°21.101 2°33.188 277.1 14 274 28.9
2007-02-22 09:08:38 51°21.104 2°33.158 280.1 14 281 28.2
2007-02-22 09:08:43 51°21.108 2°33.128 284.6 13.9 283 28.5